Domov               UVHVVR             MKGP            O straneh              
ZDRAVSTVENO VARSTVO RASTLIN
  MREŽA AGROMET. POSTAJ
 ► PROGNOSTIČNA OBVESTILA
AGROMETEOROLOŠKI PODATKI -
ARSO
OBVLADOVANJE TVEGANJ ZARADI
NEUGODNIH VREMENSKIH RAZMER
  ► NARAVNE NESREČE
  ► SUŠA/MOČA
  ► NAMAKANJE
  ► ŽLED (gozdarstvo)
KARTOGRAFSKI PRIKAZI
SPLETNE POVEZAVE
PROJEKTI IN PUBLIKACIJE

AGROMETEOROLOŠKA MREŽA: VREMENSKE POSTAJE IN FENOLOŠKA OPAZOVANJA

Pregled podatkov za lokacijo Braslovče (Pšaker), meteorološka postaja 39323

Pregled senzorjev na lokaciji

ID Ime Zadnja
vrednost
Datum
zadnje
spremembe
Tip
senzorja
1914 Temperatura 2 m ( °C) 22,44 °C 24.6.2017 22:00 50YA
1915 Relativna vlaga 2 m (% RH) 89,55 % RH 24.6.2017 22:00 50YA
2040 Padavine 0.2 mm (mm) 0 mm 24.6.2017 22:00 Rain-O-Matic
2041 Omočenost lista (U) 0 U 24.6.2017 22:00 A730WET

Pregled podatkov zadnjih 24 ur

Zap.
št.
Datum in čas Braslovče (Pšaker)
Omočenost
lista
Padavine
0.2
mm
Relativna
vlaga
2
m
Temperatura
2
m
0 24.6.2017 21:00 0 0 89,55 22,44
1 24.6.2017 20:30 0 0 87,45 23,03
2 24.6.2017 20:00 0 0 85,71 23,59
3 24.6.2017 19:30 0 0 82,49 24,59
4 24.6.2017 19:00 0 0 79,9 25,42
5 24.6.2017 18:30 0 0 75,73 26,37
6 24.6.2017 18:00 0 0 69,11 27,57
7 24.6.2017 17:30 0 0 71,43 27,06
8 24.6.2017 17:00 0 0 65,45 27,84
9 24.6.2017 16:30 0 0 64,88 27,81
10 24.6.2017 16:00 0 0 76,51 26,35
11 24.6.2017 15:30 0 0 73,65 27,13
12 24.6.2017 15:00 0 0 63,3 29,04
13 24.6.2017 14:30 0 0 50,94 31,06
14 24.6.2017 14:00 0 0 47,57 31,79
15 24.6.2017 13:30 0 0 48,4 31,53
16 24.6.2017 13:00 0 0 50,16 30,65
17 24.6.2017 12:30 0 0 51,38 30,23
18 24.6.2017 12:00 0 0 53,85 29,28
19 24.6.2017 11:30 0 0 55,56 28,5
20 24.6.2017 11:00 0 0 52,99 28,33
21 24.6.2017 10:30 0 0 52,84 27,5
22 24.6.2017 10:00 0 0 54,41 26,94
23 24.6.2017 09:30 0 0 58,12 26,06
24 24.6.2017 09:00 0 0 61 25,49
25 24.6.2017 08:30 0 0 65,62 24,66
26 24.6.2017 08:00 0 0 70,18 24
27 24.6.2017 07:30 5 0 76,7 23,76
28 24.6.2017 07:00 10 0 84 22
29 24.6.2017 06:30 10 0 88,64 20,46
30 24.6.2017 06:00 10 0 95,48 18,29
31 24.6.2017 05:30 10 0 99,78 16,83
32 24.6.2017 05:00 10 0 99,93 16,09
33 24.6.2017 04:30 10 0 99,93 16,12
34 24.6.2017 04:00 10 0 99,9 16,09
35 24.6.2017 03:30 10 0 99,85 16,29
36 24.6.2017 03:00 10 0 99,83 16,56
37 24.6.2017 02:30 10 0 99,8 16,85
38 24.6.2017 02:00 10 0 99,76 17,14
39 24.6.2017 01:30 10 0 99,83 17,19
40 24.6.2017 01:00 10 0 99,61 17,17
41 24.6.2017 00:30 10 0 99,27 17,39
42 24.6.2017 00:00 10 0 98,88 17,75
43 23.6.2017 23:30 10 0 99,07 18,02
44 23.6.2017 23:00 10 0 99,12 18,19
© 2011 Ministrstvo za kmetijstvo, gozdarstvo in prehrano. Vse pravice pridržane.